Wetterdaten: Woche 10.03.14 - 16.03.14 (KW11)
Datum Zeit Temperatur Luftfeuchte Luftdruck Niederschlag Windrichtung Sonnenschein Solar Wind
10.03.2014 00:00 4,6 C 67 % 1024,6 hPa 0,0 l/m N 0,00 h 0 W/m 8,4 km/h (2 Bft)
10.03.2014 01:00 4,1 C 69 % 1024,4 hPa 0,0 l/m N 0,00 h 0 W/m 6,3 km/h (2 Bft)
10.03.2014 02:00 3,8 C 71 % 1023,9 hPa 0,0 l/m N 0,00 h 0 W/m 6,8 km/h (2 Bft)
10.03.2014 03:00 2,8 C 77 % 1023,4 hPa 0,0 l/m N-NO 0,00 h 0 W/m 5,5 km/h (1 Bft)
10.03.2014 04:00 2,1 C 82 % 1023,3 hPa 0,0 l/m N-NO 0,00 h 0 W/m 7,5 km/h (2 Bft)
10.03.2014 05:00 1,7 C 84 % 1023,2 hPa 0,0 l/m N-NO 0,00 h 0 W/m 4,3 km/h (1 Bft)
10.03.2014 06:00 1,0 C 88 % 1023,2 hPa 0,0 l/m N-NO 0,00 h 7 W/m 4,4 km/h (1 Bft)
10.03.2014 07:00 1,1 C 89 % 1023,1 hPa 0,0 l/m N-NO 0,00 h 43 W/m 5,9 km/h (2 Bft)
10.03.2014 08:00 2,5 C 87 % 1023,0 hPa 0,0 l/m N-NO 0,83 h 184 W/m 7,8 km/h (2 Bft)
10.03.2014 09:00 4,0 C 81 % 1022,7 hPa 0,0 l/m O-NO 1,00 h 349 W/m 9,3 km/h (2 Bft)
10.03.2014 10:00 6,0 C 74 % 1022,2 hPa 0,0 l/m O-NO 1,00 h 471 W/m 9,4 km/h (2 Bft)
10.03.2014 11:00 7,9 C 68 % 1021,7 hPa 0,0 l/m NO 1,00 h 582 W/m 10,7 km/h (2 Bft)
10.03.2014 12:00 9,9 C 62 % 1020,8 hPa 0,0 l/m O 1,00 h 622 W/m 12,4 km/h (3 Bft)
10.03.2014 13:00 11,6 C 57 % 1020,1 hPa 0,0 l/m O-NO 1,00 h 605 W/m 13,0 km/h (3 Bft)
10.03.2014 14:00 13,1 C 53 % 1019,8 hPa 0,0 l/m O-NO 1,00 h 532 W/m 18,0 km/h (3 Bft)
10.03.2014 15:00 13,4 C 50 % 1019,8 hPa 0,0 l/m NO 1,00 h 419 W/m 19,6 km/h (3 Bft)
10.03.2014 16:00 13,3 C 47 % 1019,8 hPa 0,0 l/m O-NO 1,00 h 274 W/m 17,0 km/h (3 Bft)
10.03.2014 17:00 12,3 C 49 % 1019,9 hPa 0,0 l/m O-NO 0,58 h 81 W/m 11,1 km/h (2 Bft)
10.03.2014 18:00 10,3 C 56 % 1020,5 hPa 0,0 l/m N-NO 0,00 h 9 W/m 9,5 km/h (2 Bft)
10.03.2014 19:00 7,7 C 67 % 1021,0 hPa 0,0 l/m N-NO 0,00 h 0 W/m 7,8 km/h (2 Bft)
10.03.2014 20:00 6,8 C 69 % 1021,9 hPa 0,0 l/m NO 0,00 h 0 W/m 3,7 km/h (1 Bft)
10.03.2014 21:00 5,7 C 71 % 1022,0 hPa 0,0 l/m NO 0,00 h 0 W/m 3,5 km/h (1 Bft)
10.03.2014 22:00 4,8 C 73 % 1021,9 hPa 0,0 l/m NO 0,00 h 0 W/m 3,5 km/h (1 Bft)
10.03.2014 23:00 4,2 C 75 % 1021,7 hPa 0,0 l/m NO 0,00 h 0 W/m 3,1 km/h (1 Bft)
11.03.2014 00:00 3,6 C 78 % 1021,7 hPa 0,0 l/m N 0,00 h 0 W/m 5,2 km/h (1 Bft)
11.03.2014 01:00 2,3 C 82 % 1022,0 hPa 0,0 l/m N 0,00 h 0 W/m 0,8 km/h (0 Bft)
11.03.2014 02:00 2,3 C 83 % 1022,2 hPa 0,0 l/m N 0,00 h 0 W/m 6,1 km/h (2 Bft)
11.03.2014 03:00 2,2 C 83 % 1022,5 hPa 0,0 l/m N 0,00 h 0 W/m 5,6 km/h (1 Bft)
11.03.2014 04:00 2,1 C 83 % 1022,9 hPa 0,0 l/m N-NO 0,00 h 0 W/m 11,3 km/h (2 Bft)
11.03.2014 05:00 1,9 C 82 % 1023,2 hPa 0,0 l/m N-NO 0,00 h 0 W/m 11,6 km/h (2 Bft)
11.03.2014 06:00 1,6 C 83 % 1023,7 hPa 0,0 l/m N-NO 0,00 h 8 W/m 10,1 km/h (2 Bft)
11.03.2014 07:00 2,1 C 82 % 1024,5 hPa 0,0 l/m N-NO 0,17 h 55 W/m 8,7 km/h (2 Bft)
11.03.2014 08:00 3,1 C 80 % 1025,1 hPa 0,0 l/m NO 1,00 h 184 W/m 11,2 km/h (2 Bft)
11.03.2014 09:00 4,0 C 76 % 1025,3 hPa 0,0 l/m NO 0,08 h 165 W/m 11,6 km/h (2 Bft)
11.03.2014 10:00 5,7 C 70 % 1025,4 hPa 0,0 l/m NO 0,58 h 325 W/m 16,5 km/h (3 Bft)
11.03.2014 11:00 8,3 C 59 % 1025,1 hPa 0,0 l/m O-NO 1,00 h 580 W/m 20,9 km/h (4 Bft)
11.03.2014 12:00 10,1 C 48 % 1024,9 hPa 0,0 l/m O-NO 1,00 h 569 W/m 24,9 km/h (4 Bft)
11.03.2014 13:00 11,0 C 43 % 1024,4 hPa 0,0 l/m NO 1,00 h 533 W/m 24,8 km/h (4 Bft)
11.03.2014 14:00 12,4 C 37 % 1024,0 hPa 0,0 l/m O 1,00 h 474 W/m 23,7 km/h (4 Bft)
11.03.2014 15:00 13,2 C 32 % 1024,1 hPa 0,0 l/m O 1,00 h 349 W/m 26,1 km/h (4 Bft)
11.03.2014 16:00 12,3 C 34 % 1024,7 hPa 0,0 l/m NO 0,83 h 184 W/m 23,4 km/h (4 Bft)
11.03.2014 17:00 10,9 C 39 % 1025,3 hPa 0,0 l/m O-NO 0,33 h 69 W/m 14,8 km/h (3 Bft)
11.03.2014 18:00 9,6 C 43 % 1026,1 hPa 0,0 l/m O-NO 0,17 h 11 W/m 13,6 km/h (3 Bft)
11.03.2014 19:00 8,0 C 47 % 1026,5 hPa 0,0 l/m NO 0,00 h 0 W/m 7,1 km/h (2 Bft)
11.03.2014 20:00 7,0 C 52 % 1026,8 hPa 0,0 l/m NO 0,00 h 0 W/m 7,1 km/h (2 Bft)
11.03.2014 21:00 6,9 C 53 % 1027,0 hPa 0,0 l/m O-NO 0,00 h 0 W/m 9,8 km/h (2 Bft)
11.03.2014 22:00 6,1 C 57 % 1027,0 hPa 0,0 l/m NO 0,00 h 0 W/m 8,4 km/h (2 Bft)
11.03.2014 23:00 5,8 C 58 % 1026,9 hPa 0,0 l/m NO 0,00 h 0 W/m 9,9 km/h (2 Bft)
12.03.2014 00:00 4,9 C 62 % 1026,9 hPa 0,0 l/m NO 0,00 h 0 W/m 8,3 km/h (2 Bft)
12.03.2014 01:00 4,6 C 63 % 1026,8 hPa 0,0 l/m N-NO 0,00 h 0 W/m 9,4 km/h (2 Bft)
12.03.2014 02:00 3,5 C 68 % 1026,8 hPa 0,0 l/m N 0,00 h 0 W/m 9,5 km/h (2 Bft)
12.03.2014 03:00 2,5 C 72 % 1027,0 hPa 0,0 l/m N 0,00 h 0 W/m 7,2 km/h (2 Bft)
12.03.2014 04:00 2,2 C 74 % 1027,2 hPa 0,0 l/m N 0,00 h 0 W/m 7,2 km/h (2 Bft)
12.03.2014 05:00 1,7 C 76 % 1027,6 hPa 0,0 l/m N 0,00 h 0 W/m 4,7 km/h (1 Bft)
12.03.2014 06:00 1,3 C 78 % 1028,0 hPa 0,0 l/m N 0,00 h 8 W/m 5,7 km/h (1 Bft)
12.03.2014 07:00 1,6 C 78 % 1028,5 hPa 0,0 l/m N 0,00 h 48 W/m 7,2 km/h (2 Bft)
12.03.2014 08:00 3,4 C 72 % 1028,9 hPa 0,0 l/m N-NO 0,92 h 211 W/m 9,7 km/h (2 Bft)
12.03.2014 09:00 5,5 C 66 % 1029,1 hPa 0,0 l/m O-NO 1,00 h 379 W/m 13,2 km/h (3 Bft)
12.03.2014 10:00 7,7 C 61 % 1029,2 hPa 0,0 l/m NO 1,00 h 518 W/m 13,0 km/h (3 Bft)
12.03.2014 11:00 10,1 C 55 % 1028,9 hPa 0,0 l/m O-NO 1,00 h 612 W/m 12,4 km/h (3 Bft)
12.03.2014 12:00 12,3 C 48 % 1028,5 hPa 0,0 l/m O-NO 1,00 h 646 W/m 13,8 km/h (3 Bft)
12.03.2014 13:00 14,2 C 42 % 1027,8 hPa 0,0 l/m O-NO 1,00 h 636 W/m 17,7 km/h (3 Bft)
12.03.2014 14:00 15,7 C 37 % 1027,3 hPa 0,0 l/m O-SO 1,00 h 567 W/m 18,1 km/h (3 Bft)
12.03.2014 15:00 16,5 C 35 % 1026,9 hPa 0,0 l/m O-SO 1,00 h 453 W/m 18,5 km/h (3 Bft)
12.03.2014 16:00 16,4 C 35 % 1026,7 hPa 0,0 l/m O 0,92 h 311 W/m 16,2 km/h (3 Bft)
12.03.2014 17:00 15,1 C 38 % 1026,7 hPa 0,0 l/m O 0,75 h 91 W/m 11,7 km/h (2 Bft)
12.03.2014 18:00 11,9 C 47 % 1027,1 hPa 0,0 l/m O 0,08 h 9 W/m 2,8 km/h (1 Bft)
12.03.2014 19:00 9,3 C 56 % 1027,4 hPa 0,0 l/m O-NO 0,00 h 0 W/m 3,9 km/h (1 Bft)
12.03.2014 20:00 8,5 C 59 % 1027,5 hPa 0,0 l/m NO 0,00 h 0 W/m 4,1 km/h (1 Bft)
12.03.2014 21:00 7,2 C 63 % 1027,4 hPa 0,0 l/m NO 0,00 h 0 W/m 4,0 km/h (1 Bft)
12.03.2014 22:00 6,1 C 68 % 1027,3 hPa 0,0 l/m NO 0,00 h 0 W/m 3,9 km/h (1 Bft)
12.03.2014 23:00 5,5 C 70 % 1027,1 hPa 0,0 l/m N 0,00 h 0 W/m 2,9 km/h (1 Bft)
13.03.2014 00:00 5,1 C 70 % 1027,0 hPa 0,0 l/m NO 0,00 h 0 W/m 3,7 km/h (1 Bft)
13.03.2014 01:00 4,0 C 74 % 1027,1 hPa 0,0 l/m NO 0,00 h 0 W/m 3,5 km/h (1 Bft)
13.03.2014 02:00 3,1 C 78 % 1026,7 hPa 0,0 l/m N 0,00 h 0 W/m 1,2 km/h (1 Bft)
13.03.2014 03:00 2,2 C 81 % 1026,5 hPa 0,0 l/m N 0,00 h 0 W/m 1,1 km/h (0 Bft)
13.03.2014 04:00 1,8 C 83 % 1026,5 hPa 0,0 l/m N 0,00 h 0 W/m 1,6 km/h (1 Bft)
13.03.2014 05:00 1,3 C 84 % 1026,8 hPa 0,0 l/m N 0,00 h 0 W/m 0,9 km/h (0 Bft)
13.03.2014 06:00 0,4 C 86 % 1027,1 hPa 0,0 l/m N 0,00 h 8 W/m 0,1 km/h (0 Bft)
13.03.2014 07:00 0,3 C 88 % 1027,7 hPa 0,0 l/m N 0,00 h 50 W/m 0,0 km/h (0 Bft)
13.03.2014 08:00 2,1 C 85 % 1028,1 hPa 0,0 l/m N 0,92 h 200 W/m 1,2 km/h (1 Bft)
13.03.2014 09:00 5,2 C 77 % 1028,1 hPa 0,0 l/m NO 1,00 h 364 W/m 3,1 km/h (1 Bft)
13.03.2014 10:00 8,2 C 67 % 1027,8 hPa 0,0 l/m NO 1,00 h 500 W/m 3,9 km/h (1 Bft)
13.03.2014 11:00 11,1 C 59 % 1027,2 hPa 0,0 l/m S-SW 1,00 h 593 W/m 5,6 km/h (1 Bft)
13.03.2014 12:00 13,1 C 54 % 1026,7 hPa 0,0 l/m S 1,00 h 627 W/m 4,9 km/h (1 Bft)
13.03.2014 13:00 14,5 C 49 % 1025,9 hPa 0,0 l/m O-SO 1,00 h 612 W/m 5,6 km/h (1 Bft)
13.03.2014 14:00 15,8 C 46 % 1025,2 hPa 0,0 l/m O 1,00 h 544 W/m 6,4 km/h (2 Bft)
13.03.2014 15:00 16,2 C 45 % 1024,8 hPa 0,0 l/m O 1,00 h 421 W/m 7,8 km/h (2 Bft)
13.03.2014 16:00 16,3 C 35 % 1024,7 hPa 0,0 l/m O-NO 1,00 h 283 W/m 8,2 km/h (2 Bft)
13.03.2014 17:00 15,5 C 35 % 1024,9 hPa 0,0 l/m O-NO 0,67 h 97 W/m 6,1 km/h (2 Bft)
13.03.2014 18:00 11,8 C 49 % 1025,3 hPa 0,0 l/m N 0,00 h 9 W/m 0,5 km/h (0 Bft)
13.03.2014 19:00 8,7 C 60 % 1025,7 hPa 0,0 l/m O-NO 0,00 h 0 W/m 1,6 km/h (1 Bft)
13.03.2014 20:00 6,8 C 70 % 1026,0 hPa 0,0 l/m N 0,00 h 0 W/m 0,1 km/h (0 Bft)
13.03.2014 21:00 5,7 C 75 % 1026,1 hPa 0,0 l/m N 0,00 h 0 W/m 0,0 km/h (0 Bft)
13.03.2014 22:00 4,5 C 80 % 1026,2 hPa 0,0 l/m N 0,00 h 0 W/m 0,0 km/h (0 Bft)
13.03.2014 23:00 3,7 C 81 % 1026,2 hPa 0,0 l/m N 0,00 h 0 W/m 0,0 km/h (0 Bft)
14.03.2014 00:00 3,0 C 83 % 1026,0 hPa 0,0 l/m N 0,00 h 0 W/m 0,0 km/h (0 Bft)
14.03.2014 01:00 2,0 C 86 % 1026,1 hPa 0,0 l/m N 0,00 h 0 W/m 0,4 km/h (0 Bft)
14.03.2014 02:00 1,3 C 90 % 1026,0 hPa 0,0 l/m N 0,00 h 0 W/m 0,0 km/h (0 Bft)
14.03.2014 03:00 0,8 C 90 % 1026,0 hPa 0,0 l/m N 0,00 h 0 W/m 0,0 km/h (0 Bft)
14.03.2014 04:00 0,6 C 92 % 1026,2 hPa 0,0 l/m N 0,00 h 0 W/m 0,0 km/h (0 Bft)
14.03.2014 05:00 0,2 C 92 % 1026,1 hPa 0,0 l/m N 0,00 h 0 W/m 0,0 km/h (0 Bft)
14.03.2014 06:00 -0,1 C 92 % 1026,0 hPa 0,0 l/m N 0,00 h 9 W/m 0,0 km/h (0 Bft)
14.03.2014 07:00 0,5 C 92 % 1026,1 hPa 0,0 l/m N 0,00 h 52 W/m 0,0 km/h (0 Bft)
14.03.2014 08:00 3,0 C 88 % 1026,2 hPa 0,0 l/m N 0,75 h 186 W/m 0,0 km/h (0 Bft)
14.03.2014 09:00 6,5 C 82 % 1025,9 hPa 0,0 l/m O 1,00 h 341 W/m 3,9 km/h (1 Bft)
14.03.2014 10:00 10,1 C 72 % 1025,3 hPa 0,0 l/m O 1,00 h 477 W/m 6,4 km/h (2 Bft)
14.03.2014 11:00 12,7 C 61 % 1024,8 hPa 0,0 l/m SO 1,00 h 577 W/m 4,0 km/h (1 Bft)
14.03.2014 12:00 15,0 C 47 % 1024,1 hPa 0,0 l/m SO 1,00 h 626 W/m 6,2 km/h (2 Bft)
14.03.2014 13:00 16,2 C 42 % 1023,0 hPa 0,0 l/m O 1,00 h 606 W/m 7,0 km/h (2 Bft)
14.03.2014 14:00 17,4 C 40 % 1022,3 hPa 0,0 l/m N-NO 1,00 h 529 W/m 8,7 km/h (2 Bft)
14.03.2014 15:00 17,3 C 38 % 1021,9 hPa 0,0 l/m O-NO 1,00 h 419 W/m 5,7 km/h (1 Bft)
14.03.2014 16:00 17,1 C 39 % 1021,4 hPa 0,0 l/m O-NO 1,00 h 267 W/m 3,6 km/h (1 Bft)
14.03.2014 17:00 15,9 C 45 % 1021,2 hPa 0,0 l/m O-NO 0,50 h 81 W/m 1,2 km/h (1 Bft)
14.03.2014 18:00 12,3 C 57 % 1021,6 hPa 0,0 l/m O-NO 0,00 h 11 W/m 0,9 km/h (0 Bft)
14.03.2014 19:00 9,7 C 66 % 1022,0 hPa 0,0 l/m N 0,00 h 0 W/m 0,0 km/h (0 Bft)
14.03.2014 20:00 8,2 C 74 % 1022,1 hPa 0,0 l/m N 0,00 h 0 W/m 0,0 km/h (0 Bft)
14.03.2014 21:00 7,1 C 79 % 1022,4 hPa 0,0 l/m O-NO 0,00 h 0 W/m 2,0 km/h (1 Bft)
14.03.2014 22:00 5,9 C 83 % 1022,7 hPa 0,0 l/m N 0,00 h 0 W/m 0,1 km/h (0 Bft)
14.03.2014 23:00 4,9 C 85 % 1022,6 hPa 0,0 l/m N 0,00 h 0 W/m 0,8 km/h (0 Bft)
15.03.2014 00:00 3,8 C 88 % 1021,9 hPa 0,0 l/m N 0,00 h 0 W/m 0,3 km/h (0 Bft)
15.03.2014 01:00 2,9 C 90 % 1021,3 hPa 0,0 l/m N 0,00 h 0 W/m 0,7 km/h (0 Bft)
15.03.2014 02:00 2,6 C 91 % 1020,9 hPa 0,0 l/m N 0,00 h 0 W/m 0,8 km/h (0 Bft)
15.03.2014 03:00 3,1 C 92 % 1020,1 hPa 0,0 l/m O-NO 0,00 h 0 W/m 2,4 km/h (1 Bft)
15.03.2014 04:00 3,8 C 89 % 1020,0 hPa 0,0 l/m SW 0,00 h 0 W/m 5,0 km/h (1 Bft)
15.03.2014 05:00 4,1 C 88 % 1019,8 hPa 0,0 l/m S-SW 0,00 h 0 W/m 5,0 km/h (1 Bft)
15.03.2014 06:00 3,8 C 91 % 1019,7 hPa 0,0 l/m S-SW 0,00 h 8 W/m 7,0 km/h (2 Bft)
15.03.2014 07:00 6,8 C 80 % 1019,9 hPa 0,0 l/m W-SW 0,00 h 33 W/m 18,2 km/h (3 Bft)
15.03.2014 08:00 7,4 C 78 % 1020,2 hPa 0,0 l/m SW 0,00 h 102 W/m 14,0 km/h (3 Bft)
15.03.2014 09:00 8,9 C 71 % 1019,6 hPa 0,0 l/m W-SW 0,00 h 192 W/m 23,5 km/h (4 Bft)
15.03.2014 10:00 10,4 C 61 % 1019,8 hPa 0,0 l/m W 0,00 h 149 W/m 24,0 km/h (4 Bft)
15.03.2014 11:00 10,2 C 62 % 1019,5 hPa 0,0 l/m W-SW 0,00 h 87 W/m 22,5 km/h (4 Bft)
15.03.2014 12:00 10,1 C 63 % 1019,1 hPa 0,0 l/m W 0,00 h 77 W/m 22,4 km/h (4 Bft)
15.03.2014 13:00 10,2 C 63 % 1019,1 hPa 0,0 l/m W-NW 0,00 h 60 W/m 18,0 km/h (3 Bft)
15.03.2014 14:00 9,6 C 66 % 1019,8 hPa 0,0 l/m W-NW 0,00 h 46 W/m 19,2 km/h (3 Bft)
15.03.2014 15:00 7,6 C 79 % 1020,3 hPa 0,0 l/m W-NW 0,00 h 53 W/m 23,5 km/h (4 Bft)
15.03.2014 16:00 6,8 C 84 % 1020,6 hPa 0,0 l/m W-NW 0,00 h 31 W/m 17,0 km/h (3 Bft)
15.03.2014 17:00 6,7 C 82 % 1021,0 hPa 0,0 l/m NW 0,00 h 22 W/m 21,2 km/h (4 Bft)
15.03.2014 18:00 6,5 C 83 % 1021,7 hPa 0,0 l/m W-NW 0,00 h 6 W/m 13,3 km/h (3 Bft)
15.03.2014 19:00 6,3 C 83 % 1022,2 hPa 0,0 l/m W 0,00 h 0 W/m 13,8 km/h (3 Bft)
15.03.2014 20:00 6,3 C 82 % 1022,9 hPa 0,0 l/m W-NW 0,00 h 0 W/m 22,0 km/h (4 Bft)
15.03.2014 21:00 6,0 C 82 % 1023,4 hPa 0,0 l/m W 0,00 h 0 W/m 15,7 km/h (3 Bft)
15.03.2014 22:00 5,7 C 85 % 1023,4 hPa 0,0 l/m W-SW 0,00 h 0 W/m 15,8 km/h (3 Bft)
15.03.2014 23:00 5,6 C 84 % 1023,0 hPa 0,0 l/m W-SW 0,00 h 0 W/m 16,4 km/h (3 Bft)
16.03.2014 00:00 5,7 C 83 % 1022,8 hPa 0,0 l/m W-SW 0,00 h 0 W/m 13,8 km/h (3 Bft)
16.03.2014 01:00 5,7 C 85 % 1022,5 hPa 0,0 l/m W-SW 0,00 h 0 W/m 16,0 km/h (3 Bft)
16.03.2014 02:00 5,7 C 87 % 1022,2 hPa 0,0 l/m W-SW 0,00 h 0 W/m 20,4 km/h (4 Bft)
16.03.2014 03:00 5,7 C 88 % 1022,0 hPa 0,0 l/m W-SW 0,00 h 0 W/m 19,3 km/h (3 Bft)
16.03.2014 04:00 5,8 C 88 % 1021,5 hPa 0,0 l/m W-SW 0,00 h 0 W/m 22,4 km/h (4 Bft)
16.03.2014 05:00 5,7 C 89 % 1021,4 hPa 0,0 l/m W-SW 0,00 h 0 W/m 24,8 km/h (4 Bft)
16.03.2014 06:00 5,9 C 88 % 1021,6 hPa 0,0 l/m W-SW 0,00 h 0 W/m 21,6 km/h (4 Bft)
16.03.2014 07:00 6,2 C 86 % 1021,7 hPa 0,0 l/m W-SW 0,00 h 10 W/m 25,1 km/h (4 Bft)
16.03.2014 08:00 6,6 C 84 % 1022,1 hPa 0,0 l/m W-SW 0,00 h 33 W/m 26,7 km/h (4 Bft)
16.03.2014 09:00 7,5 C 80 % 1022,1 hPa 0,0 l/m W-SW 0,00 h 100 W/m 27,0 km/h (4 Bft)
16.03.2014 10:00 9,2 C 75 % 1022,1 hPa 0,0 l/m W-SW 0,00 h 151 W/m 26,3 km/h (4 Bft)
16.03.2014 11:00 10,0 C 73 % 1021,9 hPa 0,0 l/m W-SW 0,17 h 263 W/m 27,8 km/h (4 Bft)
16.03.2014 12:00 10,9 C 71 % 1021,6 hPa 0,0 l/m W-SW 0,25 h 275 W/m 28,8 km/h (5 Bft)
16.03.2014 13:00 11,8 C 68 % 1021,0 hPa 0,0 l/m W-SW 0,42 h 365 W/m 27,5 km/h (4 Bft)
16.03.2014 14:00 11,9 C 68 % 1020,6 hPa 0,0 l/m W-SW 0,00 h 158 W/m 27,4 km/h (4 Bft)
16.03.2014 15:00 12,8 C 66 % 1020,3 hPa 0,0 l/m W-SW 0,17 h 147 W/m 26,0 km/h (4 Bft)
16.03.2014 16:00 14,0 C 61 % 1019,6 hPa 0,0 l/m W-SW 0,83 h 277 W/m 27,9 km/h (4 Bft)
16.03.2014 17:00 13,6 C 63 % 1019,5 hPa 0,0 l/m W-SW 0,75 h 107 W/m 20,0 km/h (4 Bft)
16.03.2014 18:00 12,3 C 66 % 1019,8 hPa 0,0 l/m W-SW 0,00 h 11 W/m 15,8 km/h (3 Bft)
16.03.2014 19:00 11,6 C 68 % 1020,1 hPa 0,0 l/m W-SW 0,00 h 0 W/m 17,8 km/h (3 Bft)
16.03.2014 20:00 11,2 C 68 % 1020,5 hPa 0,0 l/m W 0,00 h 0 W/m 16,6 km/h (3 Bft)
16.03.2014 21:00 10,3 C 70 % 1020,9 hPa 0,0 l/m W 0,00 h 0 W/m 9,3 km/h (2 Bft)
16.03.2014 22:00 7,9 C 77 % 1021,3 hPa 0,0 l/m W 0,00 h 0 W/m 5,6 km/h (1 Bft)
16.03.2014 23:00 6,6 C 82 % 1021,4 hPa 0,0 l/m W 0,00 h 0 W/m 2,9 km/h (1 Bft)
Min-Datum _ 14.03.14 11.03.14 15.03.14 - - - - 10.03.14
_ Min-Zeit 06:15 16:00 12:40 - - - - 22:55
Minimum _ -0,2 C 30 % 1018,7 hPa - - - - 0,0 km/h (0 Bft)
Max-Datum _ 14.03.14 14.03.14 12.03.14 10.03.14 - 12.03.14 16.03.14 16.03.14
_ Max-Zeit 14:35 05:15 10:15 00:00 - 17:00 13:05 08:00
Maximum _ 17,6 C 93 % 1029,3 hPa 0,0 l/m - 0,17 h 703 W/m 35,4 km/h
SW (5 Bft)
Durchschnitt _ 7,3 C 69 % 1023,8 hPa #0,0 l/m O-NO #48:40 h 260 W/m 10,1 km/h (2 Bft)